createdAt,value
2023-03-13T00:01:33.328Z,5.62
2023-03-13T00:04:00.305Z,5.64
2023-03-13T00:06:35.647Z,5.63
2023-03-13T00:09:05.250Z,5.63
2023-03-13T00:11:32.357Z,5.65
2023-03-13T00:14:00.897Z,5.65
2023-03-13T00:16:28.382Z,5.61
2023-03-13T00:18:56.390Z,5.57
2023-03-13T00:21:25.497Z,5.48
2023-03-13T00:23:52.287Z,5.41
2023-03-13T00:26:21.222Z,5.38
2023-03-13T00:28:48.536Z,5.36
2023-03-13T00:31:15.273Z,5.31
2023-03-13T00:33:44.498Z,5.26
2023-03-13T00:36:14.663Z,5.23
2023-03-13T00:38:41.860Z,5.23
2023-03-13T00:41:13.832Z,5.23
2023-03-13T00:43:42.188Z,5.29
2023-03-13T00:46:09.952Z,5.26
2023-03-13T00:48:37.225Z,5.21
2023-03-13T00:51:04.455Z,5.20
2023-03-13T00:53:31.381Z,5.16
2023-03-13T00:56:04.154Z,5.13
2023-03-13T00:58:32.689Z,5.10
2023-03-13T01:01:23.534Z,5.08
2023-03-13T01:03:53.132Z,5.05
2023-03-13T01:06:22.511Z,4.94
2023-03-13T01:08:50.329Z,4.81
2023-03-13T01:11:20.263Z,4.68
2023-03-13T01:13:47.621Z,4.60
2023-03-13T01:16:17.162Z,4.61
2023-03-13T01:18:45.936Z,4.58
2023-03-13T01:21:13.752Z,4.59
2023-03-13T01:23:40.556Z,4.62
2023-03-13T01:26:08.733Z,4.65
2023-03-13T01:28:36.189Z,4.64
2023-03-13T01:31:12.772Z,4.67
2023-03-13T01:33:39.621Z,4.68
2023-03-13T01:36:06.837Z,4.70
2023-03-13T01:38:33.526Z,4.78
2023-03-13T01:41:00.264Z,4.81
2023-03-13T01:43:30.292Z,4.81
2023-03-13T01:46:07.463Z,4.86
2023-03-13T01:48:38.210Z,4.91
2023-03-13T01:51:09.369Z,4.97
2023-03-13T01:53:40.221Z,5.14
2023-03-13T01:56:09.252Z,5.22
2023-03-13T01:58:36.205Z,5.30
2023-03-13T02:01:04.028Z,5.37
2023-03-13T02:03:30.943Z,5.40
2023-03-13T02:05:59.269Z,5.45
2023-03-13T02:08:33.348Z,5.46
2023-03-13T02:11:20.141Z,5.48
2023-03-13T02:13:48.102Z,5.48
2023-03-13T02:16:15.102Z,5.50
2023-03-13T02:18:41.841Z,5.53
2023-03-13T02:21:14.850Z,5.54
2023-03-13T02:23:48.475Z,5.63
2023-03-13T02:26:15.814Z,5.66
2023-03-13T02:28:42.736Z,5.73
2023-03-13T02:31:09.891Z,5.82
2023-03-13T02:33:39.424Z,5.89
2023-03-13T02:36:07.344Z,5.97
2023-03-13T02:38:39.941Z,6.03
2023-03-13T02:41:06.793Z,6.07
2023-03-13T02:43:35.766Z,6.08
2023-03-13T02:46:06.848Z,6.06
2023-03-13T02:48:42.857Z,6.03
2023-03-13T02:51:15.294Z,5.99
2023-03-13T02:53:42.269Z,6.01
2023-03-13T02:56:09.128Z,6.03
2023-03-13T02:58:49.237Z,6.00
2023-03-13T03:01:16.879Z,5.91
2023-03-13T03:03:43.738Z,5.83
2023-03-13T03:06:10.535Z,5.68
2023-03-13T03:08:37.282Z,5.64
2023-03-13T03:11:06.001Z,5.60
2023-03-13T03:13:33.606Z,5.60
2023-03-13T03:16:00.373Z,5.57
2023-03-13T03:18:27.147Z,5.60
2023-03-13T03:20:53.857Z,5.63
2023-03-13T03:23:20.587Z,5.63
2023-03-13T03:25:47.529Z,5.61
2023-03-13T03:28:14.190Z,5.60
2023-03-13T03:30:40.882Z,5.54
2023-03-13T03:33:07.553Z,5.47
2023-03-13T03:35:38.482Z,5.34
2023-03-13T03:38:05.329Z,5.18
2023-03-13T03:40:32.193Z,5.07
2023-03-13T03:42:58.897Z,4.92
2023-03-13T03:45:25.799Z,4.80
2023-03-13T03:47:52.536Z,4.73
2023-03-13T03:50:19.250Z,4.65
2023-03-13T03:52:46.026Z,4.60
2023-03-13T03:55:12.672Z,4.58
2023-03-13T03:57:39.377Z,4.59
2023-03-13T04:00:07.841Z,4.58
2023-03-13T04:02:34.725Z,4.59
2023-03-13T04:05:01.509Z,4.65
2023-03-13T04:07:28.341Z,4.69
2023-03-13T04:09:55.094Z,4.76
2023-03-13T04:12:21.873Z,4.80
2023-03-13T04:14:48.582Z,4.80
2023-03-13T04:17:15.334Z,4.87
2023-03-13T04:19:42.036Z,4.91
2023-03-13T04:22:08.959Z,4.89
2023-03-13T04:24:35.607Z,4.89
2023-03-13T04:27:03.635Z,4.86
2023-03-13T04:29:30.315Z,4.81
2023-03-13T04:31:57.033Z,4.81
2023-03-13T04:34:23.792Z,4.75
2023-03-13T04:36:50.497Z,4.71
2023-03-13T04:39:17.192Z,4.68
2023-03-13T04:41:43.856Z,4.68
2023-03-13T04:44:10.597Z,4.68
2023-03-13T04:46:37.338Z,4.69
2023-03-13T04:49:04.044Z,4.65
2023-03-13T04:51:30.714Z,4.69
2023-03-13T04:53:57.377Z,4.70
2023-03-13T04:56:41.702Z,4.69
2023-03-13T04:59:12.030Z,4.71
2023-03-13T05:01:39.320Z,4.70
2023-03-13T05:04:06.132Z,4.73
2023-03-13T05:06:32.963Z,4.76
2023-03-13T05:08:59.693Z,4.78
2023-03-13T05:11:26.540Z,4.78
2023-03-13T05:13:53.254Z,4.80
2023-03-13T05:16:20.279Z,4.84
2023-03-13T05:18:47.144Z,4.86
2023-03-13T05:21:13.985Z,4.86
2023-03-13T05:23:40.752Z,4.89
2023-03-13T05:26:07.511Z,4.90
2023-03-13T05:28:34.215Z,4.92
2023-03-13T05:31:01.010Z,4.95
2023-03-13T05:33:27.842Z,4.95
2023-03-13T05:35:54.565Z,4.95
2023-03-13T05:38:21.428Z,4.96
2023-03-13T05:40:48.124Z,4.97
2023-03-13T05:43:14.822Z,5.03
2023-03-13T05:45:41.520Z,5.13
2023-03-13T05:48:08.237Z,5.20
2023-03-13T05:50:35.020Z,5.26
2023-03-13T05:53:01.902Z,5.30
2023-03-13T05:55:28.679Z,5.38
2023-03-13T05:57:55.541Z,5.42
2023-03-13T06:00:22.607Z,5.48
2023-03-13T06:02:49.483Z,5.60
2023-03-13T06:05:16.281Z,5.67
2023-03-13T06:07:43.038Z,5.78
2023-03-13T06:10:10.628Z,5.82
2023-03-13T06:12:37.977Z,5.85
2023-03-13T06:15:07.186Z,5.83
2023-03-13T06:17:33.902Z,5.83
2023-03-13T06:20:00.673Z,5.87
2023-03-13T06:22:27.535Z,5.98
2023-03-13T06:24:54.186Z,6.08
2023-03-13T06:27:20.896Z,6.11
2023-03-13T06:29:47.682Z,6.10
2023-03-13T06:32:14.538Z,6.25
2023-03-13T06:34:41.286Z,6.36
2023-03-13T06:37:08.092Z,6.68
2023-03-13T06:39:34.852Z,7.02
2023-03-13T06:42:02.057Z,7.22
2023-03-13T06:44:28.817Z,7.29
2023-03-13T06:46:55.569Z,7.43
2023-03-13T06:49:22.334Z,7.47
2023-03-13T06:51:50.129Z,7.39
2023-03-13T06:54:17.915Z,7.50
2023-03-13T06:56:44.749Z,7.61
2023-03-13T06:59:11.429Z,7.53
2023-03-13T07:01:38.237Z,7.57
2023-03-13T07:04:11.680Z,7.72
2023-03-13T07:06:38.458Z,7.82
2023-03-13T07:09:05.342Z,7.78
2023-03-13T07:11:33.267Z,7.84
2023-03-13T07:14:15.151Z,7.64
2023-03-13T07:16:43.451Z,7.69
2023-03-13T07:19:10.232Z,7.89
2023-03-13T07:21:37.366Z,8.05
2023-03-13T07:24:04.490Z,8.17
2023-03-13T07:26:31.227Z,8.31
2023-03-13T07:28:57.998Z,8.54
2023-03-13T07:31:24.994Z,8.83
2023-03-13T07:33:56.442Z,9.07
2023-03-13T07:36:23.860Z,9.13
2023-03-13T07:38:51.458Z,9.12
2023-03-13T07:41:19.379Z,9.40
2023-03-13T07:43:46.392Z,9.48
2023-03-13T07:46:16.098Z,10.01
2023-03-13T07:48:43.304Z,10.15
2023-03-13T07:51:16.495Z,10.28
2023-03-13T07:53:44.667Z,10.72
2023-03-13T07:56:12.952Z,10.97
2023-03-13T07:58:40.763Z,10.76
2023-03-13T08:01:26.842Z,11.07
2023-03-13T08:03:55.911Z,11.51
2023-03-13T08:06:27.185Z,11.52
2023-03-13T08:08:57.475Z,11.48
2023-03-13T08:11:26.090Z,11.57
2023-03-13T08:13:53.696Z,11.95
2023-03-13T08:16:23.209Z,12.13
2023-03-13T08:18:53.195Z,12.55
2023-03-13T08:21:22.826Z,12.65
2023-03-13T08:23:53.158Z,12.82
2023-03-13T08:26:21.777Z,12.91
2023-03-13T08:28:53.203Z,13.32
2023-03-13T08:31:23.885Z,13.94
2023-03-13T08:33:51.025Z,14.68
2023-03-13T08:36:18.702Z,14.94
2023-03-13T08:38:46.798Z,14.56
2023-03-13T08:41:15.517Z,14.56
2023-03-13T08:43:42.322Z,14.39
2023-03-13T08:46:09.359Z,15.03
2023-03-13T08:48:36.542Z,15.85
2023-03-13T08:51:15.249Z,16.28
2023-03-13T08:53:43.690Z,16.30
2023-03-13T08:56:12.443Z,16.37
2023-03-13T08:58:39.691Z,16.55
2023-03-13T09:01:09.426Z,16.86
2023-03-13T09:03:36.324Z,16.73
2023-03-13T09:06:03.935Z,17.12
2023-03-13T09:08:31.574Z,17.61
2023-03-13T09:11:03.401Z,17.42
2023-03-13T09:13:31.236Z,16.66
2023-03-13T09:15:59.843Z,16.71
2023-03-13T09:18:27.195Z,16.60
2023-03-13T09:20:54.275Z,16.19
2023-03-13T09:23:21.492Z,16.22
2023-03-13T09:25:56.062Z,16.72
2023-03-13T09:28:24.141Z,17.23
2023-03-13T09:30:51.223Z,17.58
2023-03-13T09:33:19.001Z,18.09
2023-03-13T09:35:50.795Z,17.66
2023-03-13T09:38:19.133Z,17.44
2023-03-13T09:40:59.784Z,16.96
2023-03-13T09:43:52.517Z,17.00
2023-03-13T09:46:24.913Z,16.56
2023-03-13T09:48:57.453Z,17.02
2023-03-13T09:51:41.148Z,17.56
2023-03-13T09:54:29.218Z,17.46
2023-03-13T09:57:23.412Z,17.05
2023-03-13T10:00:06.537Z,17.52
2023-03-13T10:02:35.444Z,17.35
2023-03-13T10:05:19.357Z,18.01
2023-03-13T10:07:46.351Z,17.81
2023-03-13T10:10:54.405Z,17.67
2023-03-13T10:13:33.272Z,17.70
2023-03-13T10:16:11.870Z,18.28
2023-03-13T10:18:38.894Z,17.47
2023-03-13T10:21:16.290Z,17.16
2023-03-13T10:23:54.172Z,17.61
2023-03-13T10:26:25.442Z,17.89
2023-03-13T10:28:52.412Z,17.99
2023-03-13T10:31:33.342Z,17.49
2023-03-13T10:34:07.535Z,16.71
2023-03-13T10:36:46.330Z,17.19
2023-03-13T10:39:18.621Z,17.34
2023-03-13T10:41:45.932Z,17.78
2023-03-13T10:44:29.129Z,18.02
2023-03-13T10:47:03.232Z,18.04
2023-03-13T10:49:31.122Z,18.45
2023-03-13T10:52:03.721Z,18.50
2023-03-13T10:54:31.548Z,18.72
2023-03-13T10:57:10.815Z,19.21
2023-03-13T10:59:44.133Z,19.80
2023-03-13T11:02:21.073Z,19.80
2023-03-13T11:04:51.403Z,19.81
2023-03-13T11:07:27.063Z,19.59
2023-03-13T11:10:13.799Z,19.50
2023-03-13T11:12:48.850Z,19.57
2023-03-13T11:15:19.254Z,20.45
2023-03-13T11:17:52.504Z,20.92
2023-03-13T11:20:27.994Z,21.21
2023-03-13T11:23:03.785Z,21.51
2023-03-13T11:25:41.216Z,21.56
2023-03-13T11:28:22.375Z,21.61
2023-03-13T11:30:58.387Z,21.74
2023-03-13T11:33:53.067Z,21.39
2023-03-13T11:36:41.134Z,21.03
2023-03-13T11:39:32.028Z,21.15
2023-03-13T11:42:22.664Z,20.97
2023-03-13T11:44:55.534Z,21.30
2023-03-13T11:47:22.162Z,21.87
2023-03-13T11:50:19.056Z,21.83
2023-03-13T11:53:25.487Z,20.85
2023-03-13T11:56:29.687Z,21.41
2023-03-13T12:02:43.122Z,20.84
2023-03-13T12:05:11.905Z,20.29
2023-03-13T12:07:53.986Z,22.34
2023-03-13T12:10:27.048Z,23.28
2023-03-13T12:13:13.020Z,24.54
2023-03-13T12:15:45.652Z,24.78
2023-03-13T12:18:15.362Z,24.25
2023-03-13T12:21:00.504Z,25.11
2023-03-13T12:23:42.014Z,26.32
2023-03-13T12:26:17.901Z,25.63
2023-03-13T12:29:13.392Z,26.39
2023-03-13T12:31:44.977Z,26.60
2023-03-13T12:34:36.269Z,26.69
2023-03-13T12:37:18.221Z,26.66
2023-03-13T12:39:50.193Z,26.90
2023-03-13T12:42:30.906Z,27.33
2023-03-13T12:44:59.156Z,26.74
2023-03-13T12:47:33.925Z,28.11
2023-03-13T12:50:49.060Z,28.67
2023-03-13T12:53:40.439Z,27.39
2023-03-13T12:56:27.727Z,27.07
2023-03-13T12:59:03.704Z,26.44
2023-03-13T13:01:42.030Z,25.84
2023-03-13T13:04:15.495Z,24.82
2023-03-13T13:07:03.265Z,23.04
2023-03-13T13:09:38.454Z,23.83
2023-03-13T13:12:25.859Z,21.86
2023-03-13T13:14:52.548Z,20.98
2023-03-13T13:17:29.446Z,19.63
2023-03-13T13:19:56.770Z,19.40
2023-03-13T13:22:37.579Z,19.22
2023-03-13T13:25:10.077Z,19.94
2023-03-13T13:27:36.827Z,19.98
2023-03-13T13:30:18.636Z,20.78
2023-03-13T13:32:47.594Z,20.57
2023-03-13T13:35:36.017Z,20.40
2023-03-13T13:38:18.190Z,20.41
2023-03-13T13:41:09.306Z,19.00
2023-03-13T13:43:42.850Z,18.87
2023-03-13T13:46:29.429Z,18.60
2023-03-13T13:49:08.461Z,18.46
2023-03-13T13:52:50.314Z,18.40
2023-03-13T14:27:18.155Z,21.09
2023-03-13T14:30:04.965Z,20.87
2023-03-13T14:32:31.791Z,22.13
2023-03-13T14:34:58.565Z,22.69
2023-03-13T14:37:52.386Z,23.74
2023-03-13T14:40:30.058Z,24.68
2023-03-13T14:42:59.558Z,24.13
2023-03-13T14:45:29.696Z,22.83
2023-03-13T14:48:05.011Z,21.57
2023-03-13T14:50:31.765Z,20.85
2023-03-13T14:53:05.371Z,19.71
2023-03-13T14:55:34.916Z,19.27
2023-03-13T14:58:07.251Z,18.72
2023-03-13T15:00:42.759Z,18.31
2023-03-13T15:03:21.742Z,17.92
2023-03-13T15:06:10.378Z,19.16
2023-03-13T15:08:39.584Z,20.12
2023-03-13T15:11:33.888Z,19.53
2023-03-13T15:14:01.518Z,19.56
2023-03-13T15:16:28.657Z,19.49
2023-03-13T15:18:56.280Z,19.46
2023-03-13T15:21:28.628Z,19.30
2023-03-13T15:24:15.747Z,18.99
2023-03-13T15:26:42.508Z,18.31
2023-03-13T15:29:11.207Z,17.59
2023-03-13T15:31:38.350Z,16.79
2023-03-13T15:34:07.006Z,16.39
2023-03-13T15:36:33.697Z,16.15
2023-03-13T15:39:00.558Z,15.91
2023-03-13T15:41:27.239Z,15.65
2023-03-13T15:43:55.497Z,15.43
2023-03-13T15:46:22.671Z,15.31
2023-03-13T15:48:51.333Z,15.12
2023-03-13T15:51:18.139Z,14.99
2023-03-13T15:53:46.265Z,14.80
2023-03-13T15:56:20.644Z,14.75
2023-03-13T15:58:48.034Z,14.68
2023-03-13T16:01:16.831Z,14.61
2023-03-13T16:03:43.834Z,14.54
2023-03-13T16:06:19.014Z,14.48
2023-03-13T16:08:46.149Z,14.38
2023-03-13T16:11:15.027Z,14.31
2023-03-13T16:13:41.853Z,14.26
2023-03-13T16:16:22.896Z,14.17
2023-03-13T16:18:50.341Z,14.12
2023-03-13T16:21:21.674Z,14.03
2023-03-13T16:23:48.600Z,13.88
2023-03-13T16:26:21.353Z,13.80
2023-03-13T16:28:48.773Z,13.70
2023-03-13T16:31:20.953Z,13.63
2023-03-13T16:33:48.454Z,13.49
2023-03-13T16:36:20.918Z,13.45
2023-03-13T16:38:48.848Z,13.34
2023-03-13T16:41:17.730Z,13.29
2023-03-13T16:43:44.710Z,13.21
2023-03-13T16:46:38.858Z,13.14
2023-03-13T16:49:06.612Z,13.10
2023-03-13T16:51:33.518Z,13.07
2023-03-13T16:54:03.837Z,13.03
2023-03-13T16:56:34.624Z,13.02
2023-03-13T16:59:03.235Z,12.97
2023-03-13T17:01:30.363Z,12.95
2023-03-13T17:03:58.154Z,12.93
2023-03-13T17:06:35.998Z,12.87
2023-03-13T17:09:04.744Z,12.84
2023-03-13T17:11:31.575Z,12.79
2023-03-13T17:13:59.495Z,12.77
2023-03-13T17:16:32.264Z,12.68
2023-03-13T17:18:59.865Z,12.71
2023-03-13T17:21:32.065Z,12.64
2023-03-13T17:24:02.022Z,12.59
2023-03-13T17:26:34.334Z,12.55
2023-03-13T17:29:02.220Z,12.46
2023-03-13T17:31:30.686Z,12.37
2023-03-13T17:33:57.422Z,12.26
2023-03-13T17:36:27.325Z,12.19
2023-03-13T17:38:59.008Z,12.13
2023-03-13T17:41:30.663Z,12.08
2023-03-13T17:43:57.821Z,12.01
2023-03-13T17:46:33.953Z,11.99
2023-03-13T17:49:01.306Z,11.93
2023-03-13T17:51:30.758Z,11.87
2023-03-13T17:53:58.462Z,11.84
2023-03-13T17:56:27.918Z,11.84
2023-03-13T17:58:58.966Z,11.78
2023-03-13T18:01:28.757Z,11.71
2023-03-13T18:03:55.755Z,11.67
2023-03-13T18:06:29.187Z,11.64
2023-03-13T18:08:58.106Z,11.61
2023-03-13T18:11:26.256Z,11.60
2023-03-13T18:13:53.670Z,11.56
2023-03-13T18:16:40.503Z,11.49
2023-03-13T18:19:17.973Z,11.38
2023-03-13T18:21:46.202Z,11.30
2023-03-13T18:24:13.578Z,11.24
2023-03-13T18:26:41.990Z,11.15
2023-03-13T18:29:26.069Z,11.07
2023-03-13T18:31:58.656Z,10.99
2023-03-13T18:34:25.891Z,10.89
2023-03-13T18:36:52.727Z,10.84
2023-03-13T18:39:20.239Z,10.81
2023-03-13T18:41:48.744Z,10.79
2023-03-13T18:44:16.284Z,10.73
2023-03-13T18:46:43.640Z,10.68
2023-03-13T18:49:21.314Z,10.67
2023-03-13T18:51:49.577Z,10.64
2023-03-13T18:54:16.666Z,10.60
2023-03-13T18:56:47.414Z,10.56
2023-03-13T18:59:18.005Z,10.49
2023-03-13T19:01:47.062Z,10.44
2023-03-13T19:04:15.258Z,10.44
2023-03-13T19:06:42.175Z,10.39
2023-03-13T19:09:41.693Z,10.35
2023-03-13T19:12:04.159Z,10.40
2023-03-13T19:14:30.862Z,10.42
2023-03-13T19:16:58.264Z,10.45
2023-03-13T19:19:25.684Z,10.53
2023-03-13T19:21:56.268Z,10.52
2023-03-13T19:24:26.604Z,10.56
2023-03-13T19:26:58.571Z,10.57
2023-03-13T19:29:27.374Z,10.54
2023-03-13T19:31:59.249Z,10.52
2023-03-13T19:34:26.051Z,10.52
2023-03-13T19:36:53.446Z,10.52
2023-03-13T19:39:23.561Z,10.49
2023-03-13T19:41:51.021Z,10.44
2023-03-13T19:44:19.039Z,10.48
2023-03-13T19:46:46.476Z,10.41
2023-03-13T19:49:15.376Z,10.33
2023-03-13T19:51:42.356Z,10.24
2023-03-13T19:54:10.772Z,10.19
2023-03-13T19:56:39.484Z,10.18
2023-03-13T19:59:10.058Z,10.13
2023-03-13T20:01:36.823Z,10.13
2023-03-13T20:04:03.692Z,10.09
2023-03-13T20:06:32.680Z,10.05
2023-03-13T20:09:02.165Z,10.00
2023-03-13T20:11:29.496Z,9.98
2023-03-13T20:13:56.610Z,9.94
2023-03-13T20:16:25.557Z,9.92
2023-03-13T20:18:52.564Z,9.89
2023-03-13T20:21:19.419Z,9.86
2023-03-13T20:23:48.208Z,9.81
2023-03-13T20:26:16.997Z,9.79
2023-03-13T20:28:46.310Z,9.75
2023-03-13T20:31:14.284Z,9.69
2023-03-13T20:33:40.985Z,9.67
2023-03-13T20:36:10.773Z,9.59
2023-03-13T20:38:38.274Z,9.52
2023-03-13T20:41:05.434Z,9.44
2023-03-13T20:43:32.626Z,9.43
2023-03-13T20:46:02.200Z,9.42
2023-03-13T20:48:29.096Z,9.39
2023-03-13T20:50:57.041Z,9.34
2023-03-13T20:53:24.969Z,9.33
2023-03-13T20:55:52.530Z,9.31
2023-03-13T20:58:22.710Z,9.18
2023-03-13T21:00:49.533Z,9.09
2023-03-13T21:03:17.390Z,8.99
2023-03-13T21:05:44.550Z,8.90
2023-03-13T21:08:11.631Z,8.89
2023-03-13T21:10:41.827Z,8.94
2023-03-13T21:13:09.897Z,8.96
2023-03-13T21:15:37.194Z,8.95
2023-03-13T21:18:04.516Z,8.94
2023-03-13T21:20:31.516Z,8.98
2023-03-13T21:22:58.293Z,9.00
2023-03-13T21:25:25.283Z,9.01
2023-03-13T21:27:52.054Z,8.98
2023-03-13T21:30:20.694Z,8.95
2023-03-13T21:32:47.577Z,8.96
2023-03-13T21:35:15.111Z,8.93
2023-03-13T21:37:42.817Z,8.94
2023-03-13T21:40:11.042Z,8.92
2023-03-13T21:42:37.768Z,8.87
2023-03-13T21:45:05.755Z,8.84
2023-03-13T21:47:36.749Z,8.84
2023-03-13T21:50:06.045Z,8.84
2023-03-13T21:52:38.147Z,8.88
2023-03-13T21:55:08.193Z,8.84
2023-03-13T21:57:34.916Z,8.85
2023-03-13T22:00:02.014Z,8.80
2023-03-13T22:02:28.924Z,8.78
2023-03-13T22:04:56.081Z,8.72
2023-03-13T22:07:23.536Z,8.72
2023-03-13T22:09:50.281Z,8.68
2023-03-13T22:12:18.232Z,8.61
2023-03-13T22:14:44.930Z,8.57
2023-03-13T22:17:16.795Z,8.56
2023-03-13T22:19:43.677Z,8.56
2023-03-13T22:22:10.406Z,8.52
2023-03-13T22:24:37.450Z,8.45
2023-03-13T22:27:05.117Z,8.39
2023-03-13T22:29:34.157Z,8.40
2023-03-13T22:32:01.592Z,8.40
2023-03-13T22:34:28.848Z,8.37
2023-03-13T22:36:55.658Z,8.38
2023-03-13T22:39:22.516Z,8.37
2023-03-13T22:41:49.424Z,8.36
2023-03-13T22:44:16.554Z,8.32
2023-03-13T22:46:43.431Z,8.32
2023-03-13T22:49:10.167Z,8.29
2023-03-13T22:51:36.899Z,8.21
2023-03-13T22:54:03.780Z,8.24
2023-03-13T22:56:30.529Z,8.23
2023-03-13T22:58:57.308Z,8.25
2023-03-13T23:01:24.294Z,8.23
2023-03-13T23:03:51.049Z,8.20
2023-03-13T23:06:19.965Z,8.17
2023-03-13T23:08:47.232Z,8.16
2023-03-13T23:11:14.150Z,8.17
2023-03-13T23:13:40.933Z,8.17
2023-03-13T23:16:09.318Z,8.12
2023-03-13T23:18:36.698Z,8.09
2023-03-13T23:21:08.861Z,8.07
2023-03-13T23:23:36.110Z,8.05
2023-03-13T23:26:04.625Z,7.96
2023-03-13T23:28:31.314Z,7.92
2023-03-13T23:30:57.962Z,7.87
2023-03-13T23:33:24.668Z,7.85
2023-03-13T23:35:51.385Z,7.84
2023-03-13T23:38:23.010Z,7.83
2023-03-13T23:40:49.939Z,7.84
2023-03-13T23:43:16.596Z,7.80
2023-03-13T23:45:43.318Z,7.80
2023-03-13T23:48:09.983Z,7.74
2023-03-13T23:50:36.794Z,7.71
2023-03-13T23:53:03.589Z,7.68
2023-03-13T23:55:30.298Z,7.65
2023-03-13T23:57:57.080Z,7.64
